Time;durP1;ratioP1;P1;durP2;ratioP2;P2;SDS_P1;SDS_P2;PMS_P1;PMS_P2;Temp;Humidity;BMP_temperature;BMP_pressure;BME280_temperature;BME280_humidity;BME280_pressure;Samples;Min_cycle;Max_cycle;Signal;HPM_P1;HPM_P2
2022/10/08 00:04:26;;;;;;;663.30;50.58;;;;;10.80;96626.00;;;;8392062;28;20232;-68
2022/10/08 00:08:30;;;;;;;874.80;52.72;;;;;10.80;96628.00;;;;8392414;28;20291;-68
2022/10/08 00:12:35;;;;;;;245.70;33.20;;;;;10.90;96627.00;;;;8392588;28;20219;-68
2022/10/08 00:16:41;;;;;;;943.35;59.55;;;;;10.90;96637.00;;;;8393194;28;20306;-68
2022/10/08 00:21:16;;;;;;;702.67;52.17;;;;;10.90;96618.00;;;;8393397;28;20251;-68
2022/10/08 00:25:50;;;;;;;1416.50;85.53;;;;;11.00;96621.00;;;;8391510;28;20667;-68
2022/10/08 00:29:55;;;;;;;1030.45;64.43;;;;;11.00;96615.00;;;;8392851;28;20614;-68
2022/10/08 00:34:29;;;;;;;1468.55;86.43;;;;;11.10;96611.00;;;;8393188;28;20251;-68
2022/10/08 00:38:33;;;;;;;1400.63;88.72;;;;;11.20;96615.00;;;;8393097;28;20219;-68
2022/10/08 00:43:10;;;;;;;1337.35;84.47;;;;;11.10;96611.00;;;;8392371;28;20220;-68
2022/10/08 00:47:18;;;;;;;1289.22;82.05;;;;;11.00;96612.00;;;;8393210;28;20220;-68
2022/10/08 00:51:22;;;;;;;1223.72;81.45;;;;;11.00;96603.00;;;;8392342;28;20250;-68
2022/10/08 00:55:56;;;;;;;1042.28;65.05;;;;;10.90;96598.00;;;;8392054;28;20258;-68
2022/10/08 01:00:00;;;;;;;605.67;47.97;;;;;10.90;96581.00;;;;8364244;28;20656;-68
2022/10/08 01:04:07;;;;;;;1050.40;70.55;;;;;10.90;96577.00;;;;8392791;28;20227;-68
2022/10/08 01:08:20;;;;;;;1185.57;79.63;;;;;10.90;96571.00;;;;8391657;28;20227;-67
2022/10/08 01:12:49;;;;;;;1178.93;76.07;;;;;10.90;96574.00;;;;8397208;28;20224;-68
2022/10/08 01:17:00;;;;;;;1212.93;79.50;;;;;10.90;96561.00;;;;8397816;28;20227;-68
2022/10/08 01:21:37;;;;;;;1079.50;74.43;;;;;10.80;96562.00;;;;8370095;28;20241;-67
2022/10/08 01:25:49;;;;;;;1110.27;71.43;;;;;10.80;96559.00;;;;8397468;28;20541;-67
2022/10/08 01:29:54;;;;;;;803.72;62.42;;;;;10.80;96565.00;;;;8397342;28;20220;-67
2022/10/08 01:34:02;;;;;;;1331.88;82.38;;;;;10.90;96556.00;;;;8396661;28;20283;-67
2022/10/08 01:38:07;;;;;;;1362.55;82.95;;;;;10.90;96559.00;;;;8397051;28;20220;-67
2022/10/08 01:42:41;;;;;;;780.30;60.25;;;;;10.90;96558.00;;;;8395332;28;20235;-67
2022/10/08 01:46:48;;;;;;;399.15;48.13;;;;;11.00;96554.00;;;;8395650;28;20236;-66
2022/10/08 01:51:24;;;;;;;817.65;65.07;;;;;11.00;96555.00;;;;8395114;28;20549;-67
2022/10/08 01:55:34;;;;;;;865.17;61.97;;;;;11.10;96556.00;;;;8394767;28;20664;-67
2022/10/08 01:59:41;;;;;;;1143.68;76.78;;;;;11.10;96556.00;;;;8395095;28;20608;-67
2022/10/08 02:08:03;;;;;;;1023.75;66.07;;;;;11.10;96550.00;;;;8393090;28;20707;-67
2022/10/08 02:12:40;;;;;;;1173.93;76.67;;;;;11.00;96545.00;;;;8394815;28;20228;-66
2022/10/08 02:16:50;;;;;;;779.08;57.65;;;;;11.00;96538.00;;;;8394769;28;20212;-67
2022/10/08 02:20:59;;;;;;;249.52;36.50;;;;;11.10;96532.00;;;;8393488;28;20641;-67
2022/10/08 02:25:31;;;;;;;297.73;40.47;;;;;11.20;96536.00;;;;8393998;28;20581;-67
2022/10/08 02:29:41;;;;;;;927.63;65.83;;;;;11.30;96532.00;;;;8394120;28;20650;-67
2022/10/08 02:33:49;;;;;;;417.23;42.90;;;;;11.40;96544.00;;;;8392893;28;20221;-66
2022/10/08 02:37:58;;;;;;;325.98;39.35;;;;;11.60;96541.00;;;;8353589;28;1195559;-66
2022/10/08 02:42:05;;;;;;;805.80;58.00;;;;;11.70;96543.00;;;;8395225;28;20473;-67
2022/10/08 02:46:38;;;;;;;530.40;47.88;;;;;11.70;96552.00;;;;8395457;28;20275;-67
2022/10/08 02:50:44;;;;;;;343.45;39.42;;;;;11.80;96546.00;;;;8394821;28;20670;-67
2022/10/08 02:54:52;;;;;;;1009.65;62.55;;;;;11.90;96550.00;;;;8395253;28;20232;-66
2022/10/08 02:59:23;;;;;;;796.08;54.08;;;;;11.90;96557.00;;;;8394372;28;20214;-66
2022/10/08 03:03:31;;;;;;;767.92;55.65;;;;;12.00;96548.00;;;;8394179;28;20307;-66
2022/10/08 03:08:03;;;;;;;419.95;43.28;;;;;12.00;96548.00;;;;8394508;28;20223;-66
2022/10/08 03:12:08;;;;;;;906.90;59.60;;;;;12.10;96538.00;;;;8394071;28;20658;-67
2022/10/08 03:16:42;;;;;;;641.63;47.42;;;;;12.10;96545.00;;;;8394278;28;20230;-67
2022/10/08 03:20:47;;;;;;;970.80;67.28;;;;;12.00;96544.00;;;;8394122;28;20582;-66
2022/10/08 03:25:21;;;;;;;650.65;53.03;;;;;12.10;96547.00;;;;8394731;28;20228;-66
2022/10/08 03:29:26;;;;;;;802.40;55.42;;;;;12.10;96545.00;;;;8394256;28;20219;-66
2022/10/08 03:34:00;;;;;;;1222.63;75.43;;;;;12.20;96542.00;;;;8393811;28;20244;-67
2022/10/08 03:38:03;;;;;;;877.55;58.83;;;;;12.20;96547.00;;;;8392547;28;20569;-66
2022/10/08 03:42:40;;;;;;;319.05;40.97;;;;;12.20;96547.00;;;;8394039;28;20234;-66
2022/10/08 03:46:45;;;;;;;509.83;52.67;;;;;12.20;96543.00;;;;8393184;28;20230;-67
2022/10/08 03:51:19;;;;;;;748.97;58.80;;;;;12.30;96546.00;;;;8393139;28;20561;-67
2022/10/08 03:55:22;;;;;;;526.95;46.80;;;;;12.30;96549.00;;;;8394204;28;20216;-67
2022/10/08 03:59:59;;;;;;;213.15;38.10;;;;;12.40;96546.00;;;;8392902;28;20222;-67
2022/10/08 04:04:04;;;;;;;377.55;45.53;;;;;12.40;96551.00;;;;8392561;28;20217;-67
2022/10/08 04:08:07;;;;;;;320.60;42.47;;;;;12.40;96552.00;;;;8393195;28;20223;-67
2022/10/08 04:12:10;;;;;;;233.55;39.03;;;;;12.50;96559.00;;;;8393623;28;20243;-67
2022/10/08 04:16:48;;;;;;;456.60;61.75;;;;;12.50;96559.00;;;;8392790;28;20227;-67
2022/10/08 04:20:57;;;;;;;257.52;42.30;;;;;12.60;96568.00;;;;8393673;28;20225;-67
2022/10/08 04:25:28;;;;;;;209.57;39.05;;;;;12.60;96560.00;;;;8392370;28;20278;-67
2022/10/08 04:29:31;;;;;;;174.07;37.28;;;;;12.70;96569.00;;;;8392342;28;20223;-67
2022/10/08 04:33:35;;;;;;;212.75;40.70;;;;;12.70;96561.00;;;;8392463;28;20307;-67
2022/10/08 04:42:56;;;;;;;209.20;41.50;;;;;12.80;96565.00;;;;8391581;28;20599;-68
2022/10/08 04:46:59;;;;;;;202.20;41.95;;;;;12.80;96558.00;;;;8397886;28;20231;-67
2022/10/08 04:51:36;;;;;;;204.48;40.92;;;;;12.90;96567.00;;;;8397534;28;20522;-68
2022/10/08 04:55:39;;;;;;;200.45;39.65;;;;;12.90;96568.00;;;;8398522;28;20218;-67
2022/10/08 04:59:43;;;;;;;220.20;41.78;;;;;13.00;96576.00;;;;8398776;28;20228;-68
2022/10/08 05:04:19;;;;;;;215.48;43.35;;;;;13.00;96583.00;;;;8397556;28;20245;-68
2022/10/08 05:08:56;;;;;;;207.38;41.25;;;;;13.00;96581.00;;;;8398565;28;20892;-69
2022/10/08 05:12:59;;;;;;;216.70;43.20;;;;;13.10;96582.00;;;;8398908;28;20230;-68
2022/10/08 05:17:04;;;;;;;206.90;43.35;;;;;13.10;96582.00;;;;8397653;28;20226;-69
2022/10/08 05:21:09;;;;;;;223.15;43.20;;;;;13.10;96568.00;;;;8398782;28;20227;-69
2022/10/08 05:25:12;;;;;;;211.90;42.17;;;;;13.20;96576.00;;;;8397952;28;20655;-68
2022/10/08 05:29:15;;;;;;;207.20;43.55;;;;;13.20;96579.00;;;;8397938;28;20254;-68
2022/10/08 05:33:54;;;;;;;211.90;43.15;;;;;13.30;96583.00;;;;8397580;28;20233;-69
2022/10/08 05:43:13;;;;;;;196.57;41.95;;;;;13.30;96597.00;;;;8396679;28;20674;-69
2022/10/08 05:47:16;;;;;;;220.93;44.75;;;;;13.40;96597.00;;;;8397093;28;20231;-68
2022/10/08 05:51:51;;;;;;;223.20;42.85;;;;;13.40;96599.00;;;;8396550;28;20223;-66
2022/10/08 05:56:27;;;;;;;217.93;44.13;;;;;13.50;96603.00;;;;8395543;28;20238;-69
2022/10/08 06:00:31;;;;;;;218.57;45.20;;;;;13.50;96606.00;;;;8396166;28;20228;-68
2022/10/08 06:05:08;;;;;;;213.20;44.95;;;;;13.60;96616.00;;;;8394962;28;20227;-69
2022/10/08 06:09:46;;;;;;;220.38;43.75;;;;;13.70;96618.00;;;;8395893;28;20230;-69
2022/10/08 06:13:52;;;;;;;233.88;45.25;;;;;13.80;96620.00;;;;8395740;28;20219;-69
2022/10/08 06:17:57;;;;;;;192.93;42.17;;;;;13.90;96626.00;;;;8395596;28;20254;-68
2022/10/08 06:22:31;;;;;;;204.18;44.47;;;;;14.00;96634.00;;;;8392051;28;20219;-69
2022/10/08 06:26:37;;;;;;;190.20;43.72;;;;;14.10;96644.00;;;;8395935;28;20601;-69
2022/10/08 06:30:41;;;;;;;205.02;44.90;;;;;14.10;96641.00;;;;8394550;28;20215;-69
2022/10/08 06:34:44;;;;;;;191.88;42.08;;;;;14.20;96646.00;;;;8395426;28;20249;-69
2022/10/08 06:39:21;;;;;;;203.80;46.33;;;;;14.30;96649.00;;;;8395566;28;20215;-68
2022/10/08 06:43:58;;;;;;;183.48;41.72;;;;;14.40;96652.00;;;;8395457;28;20222;-69
2022/10/08 06:48:03;;;;;;;170.50;41.00;;;;;14.50;96655.00;;;;8394853;28;20345;-69
2022/10/08 06:52:37;;;;;;;186.82;41.58;;;;;14.40;96655.00;;;;8395797;28;20487;-69
2022/10/08 06:57:13;;;;;;;179.80;40.15;;;;;14.40;96650.00;;;;8394454;28;20286;-69
2022/10/08 07:01:37;;;;;;;179.90;42.55;;;;;14.60;96656.00;;;;8392683;28;20216;-69
2022/10/08 07:05:43;;;;;;;178.98;43.78;;;;;14.70;96655.00;;;;8393428;28;20226;-69
2022/10/08 07:09:46;;;;;;;165.13;40.92;;;;;14.90;96655.00;;;;8393969;28;20629;-69
2022/10/08 07:13:49;;;;;;;181.43;41.17;;;;;15.00;96650.00;;;;8394167;28;20215;-69
2022/10/08 07:18:24;;;;;;;158.98;40.35;;;;;15.10;96662.00;;;;8394659;28;20216;-69
2022/10/08 07:23:01;;;;;;;170.10;38.88;;;;;15.10;96660.00;;;;8393595;28;20245;-69
2022/10/08 07:27:05;;;;;;;143.90;37.42;;;;;15.20;96665.00;;;;8393898;28;20212;-70
2022/10/08 07:31:39;;;;;;;138.15;37.17;;;;;15.20;96667.00;;;;8393140;28;20250;-70
2022/10/08 07:35:42;;;;;;;109.70;35.00;;;;;15.30;96674.00;;;;8393748;28;20291;-70
2022/10/08 07:39:46;;;;;;;132.00;35.97;;;;;15.30;96680.00;;;;8393271;28;20226;-70
2022/10/08 07:43:52;;;;;;;134.90;35.47;;;;;15.40;96685.00;;;;8393955;28;20219;-70
2022/10/08 07:47:55;;;;;;;122.22;35.33;;;;;15.50;96679.00;;;;8394024;28;20231;-71
2022/10/08 07:52:32;;;;;;;143.02;38.15;;;;;15.60;96677.00;;;;8393379;28;20216;-70
2022/10/08 07:56:36;;;;;;;108.72;34.05;;;;;15.90;96687.00;;;;8393925;28;20220;-71
2022/10/08 08:01:14;;;;;;;108.32;33.65;;;;;16.00;96702.00;;;;8393085;28;20269;-73
2022/10/08 08:05:45;;;;;;;96.80;32.83;;;;;16.10;96703.00;;;;8392114;28;20230;-71
2022/10/08 08:10:22;;;;;;;109.13;34.60;;;;;16.30;96699.00;;;;8393477;28;20573;-71
2022/10/08 08:14:25;;;;;;;94.35;30.55;;;;;16.50;96708.00;;;;8393278;28;20243;-76
2022/10/08 08:19:02;;;;;;;99.45;32.33;;;;;16.70;96715.00;;;;8392815;28;20249;-76
2022/10/08 08:23:07;;;;;;;83.63;31.98;;;;;17.00;96707.00;;;;8399715;28;20261;-76
2022/10/08 08:27:10;;;;;;;85.13;32.08;;;;;17.10;96714.00;;;;8400312;28;20231;-75
2022/10/08 08:31:47;;;;;;;78.65;30.20;;;;;17.30;96721.00;;;;8399000;28;20223;-75
2022/10/08 08:36:25;;;;;;;63.15;27.27;;;;;17.40;96723.00;;;;8398893;28;20668;-74
2022/10/08 08:45:48;;;;;;;70.78;32.47;;;;;17.40;96736.00;;;;8399235;28;20654;-74
2022/10/08 08:49:53;;;;;;;67.65;32.35;;;;;17.40;96733.00;;;;8398232;28;20239;-74
2022/10/08 08:53:56;;;;;;;67.47;32.85;;;;;17.50;96743.00;;;;8399015;28;20669;-75
2022/10/08 08:58:36;;;;;;;59.25;29.70;;;;;17.80;96730.00;;;;8398708;28;20228;-74
2022/10/08 09:02:51;;;;;;;48.83;25.60;;;;;18.10;96734.00;;;;8398923;28;20228;-74
2022/10/08 09:07:18;;;;;;;50.97;24.88;;;;;18.40;96729.00;;;;8397815;28;20224;-72
2022/10/08 09:11:51;;;;;;;40.22;23.95;;;;;18.50;96729.00;;;;8399267;28;20220;-77
2022/10/08 09:16:28;;;;;;;42.20;22.27;;;;;18.80;96734.00;;;;8397550;28;20224;-72
2022/10/08 09:20:34;;;;;;;41.97;20.75;;;;;19.10;96727.00;;;;8397672;28;20249;-71
2022/10/08 09:24:43;;;;;;;35.40;21.52;;;;;19.30;96729.00;;;;8397931;28;20234;-72
2022/10/08 09:28:48;;;;;;;34.58;19.17;;;;;19.60;96740.00;;;;8397758;28;20238;-71
2022/10/08 09:32:53;;;;;;;31.55;20.00;;;;;19.80;96735.00;;;;8397547;28;20514;-71
2022/10/08 09:37:05;;;;;;;33.95;18.50;;;;;19.90;96739.00;;;;8398216;28;20223;-71
2022/10/08 09:46:30;;;;;;;24.70;15.43;;;;;19.90;96735.00;;;;8396886;28;20230;-71
2022/10/08 09:51:02;;;;;;;26.38;14.07;;;;;19.80;96745.00;;;;8397544;28;20219;-71
2022/10/08 09:55:17;;;;;;;23.60;13.73;;;;;19.60;96739.00;;;;8397245;28;20246;-71
2022/10/08 09:59:48;;;;;;;30.55;13.82;;;;;19.50;96747.00;;;;8397188;28;20598;-71
2022/10/08 10:04:19;;;;;;;26.33;13.40;;;;;19.50;96741.00;;;;8396800;28;20220;-71
2022/10/08 10:08:47;;;;;;;22.25;12.60;;;;;19.50;96726.00;;;;8396543;28;20235;-71
2022/10/08 10:13:19;;;;;;;23.40;11.70;;;;;19.60;96734.00;;;;8396449;28;20212;-71
2022/10/08 10:17:30;;;;;;;31.15;12.40;;;;;19.60;96722.00;;;;8395927;28;20262;-71
2022/10/08 10:21:48;;;;;;;24.80;12.40;;;;;19.70;96725.00;;;;8396032;28;20231;-71
2022/10/08 10:26:22;;;;;;;17.90;10.80;;;;;19.70;96721.00;;;;8396708;28;20565;-71
2022/10/08 10:31:03;;;;;;;22.70;10.63;;;;;19.60;96721.00;;;;8395953;28;20216;-71
2022/10/08 10:35:13;;;;;;;17.98;10.98;;;;;19.60;96727.00;;;;8395452;28;20228;-71
2022/10/08 10:39:42;;;;;;;18.65;8.32;;;;;19.50;96724.00;;;;8394538;28;20584;-70
2022/10/08 10:44:19;;;;;;;14.77;7.63;;;;;19.40;96716.00;;;;8394698;28;20669;-71
2022/10/08 10:48:55;;;;;;;17.00;6.75;;;;;19.40;96728.00;;;;8394693;28;20234;-70
2022/10/08 10:53:28;;;;;;;11.63;6.53;;;;;19.70;96721.00;;;;8394879;28;20282;-71
2022/10/08 10:58:16;;;;;;;9.07;5.03;;;;;20.00;96721.00;;;;8395267;28;20228;-71
2022/10/08 11:02:46;;;;;;;12.68;4.45;;;;;20.10;96718.00;;;;8394566;28;20652;-70
2022/10/08 11:07:30;;;;;;;9.98;4.03;;;;;20.10;96717.00;;;;8394669;28;20642;-70
2022/10/08 11:12:01;;;;;;;8.70;3.67;;;;;20.20;96718.00;;;;8393981;28;20684;-71
2022/10/08 11:16:45;;;;;;;9.15;3.92;;;;;20.30;96715.00;;;;8394369;28;20220;-72
2022/10/08 11:21:05;;;;;;;14.55;4.40;;;;;20.60;96720.00;;;;8393111;28;20212;-70
2022/10/08 11:25:23;;;;;;;8.68;3.90;;;;;20.90;96706.00;;;;8394425;28;20228;-71
2022/10/08 11:29:33;;;;;;;11.73;4.25;;;;;20.80;96711.00;;;;8394204;28;20216;-70
2022/10/08 11:34:02;;;;;;;9.88;4.38;;;;;20.90;96716.00;;;;8394641;28;20565;-71
2022/10/08 11:38:12;;;;;;;5.15;4.40;;;;;21.10;96715.00;;;;8393405;28;20212;-71
2022/10/08 11:42:23;;;;;;;10.90;4.43;;;;;21.20;96703.00;;;;8393804;28;20273;-71
2022/10/08 11:46:30;;;;;;;10.88;4.65;;;;;21.50;96708.00;;;;8393493;28;20216;-72
2022/10/08 11:50:35;;;;;;;6.47;4.78;;;;;21.70;96711.00;;;;8393869;28;20216;-71
2022/10/08 11:55:09;;;;;;;4.65;3.97;;;;;21.70;96702.00;;;;8393779;28;20219;-71
2022/10/08 11:59:38;;;;;;;5.28;4.07;;;;;21.80;96701.00;;;;8394083;28;20223;-72
2022/10/08 12:03:44;;;;;;;9.40;4.30;;;;;21.40;96687.00;;;;8390378;28;20216;-71
2022/10/08 12:07:51;;;;;;;8.35;4.00;;;;;21.20;96698.00;;;;8392990;28;20215;-72
2022/10/08 12:12:25;;;;;;;7.40;4.20;;;;;21.10;96695.00;;;;8393488;28;20576;-71
2022/10/08 12:17:09;;;;;;;12.27;4.25;;;;;21.00;96694.00;;;;8393600;28;20220;-72
2022/10/08 12:21:55;;;;;;;7.47;3.83;;;;;21.10;96696.00;;;;8392996;28;20297;-71
2022/10/08 12:26:12;;;;;;;4.40;4.00;;;;;21.20;96699.00;;;;8393215;28;20223;-72
2022/10/08 12:30:16;;;;;;;6.10;3.95;;;;;21.20;96701.00;;;;8392861;28;20227;-71
2022/10/08 12:34:51;;;;;;;5.47;3.58;;;;;21.10;96700.00;;;;8393093;28;20222;-71
2022/10/08 12:39:01;;;;;;;6.85;4.18;;;;;21.00;96698.00;;;;8393203;28;20661;-71
2022/10/08 12:43:15;;;;;;;11.45;3.90;;;;;20.90;96693.00;;;;8393138;28;20230;-71
2022/10/08 12:47:34;;;;;;;4.72;3.00;;;;;20.70;96693.00;;;;8392958;28;20231;-72
2022/10/08 12:52:00;;;;;;;10.98;3.83;;;;;20.40;96701.00;;;;8392871;28;20220;-71
2022/10/08 12:56:04;;;;;;;12.80;3.35;;;;;20.40;96701.00;;;;8392928;28;20216;-72
2022/10/08 13:00:10;;;;;;;4.85;3.10;;;;;20.40;96699.00;;;;8393018;28;20231;-71
2022/10/08 13:04:18;;;;;;;5.72;3.20;;;;;20.50;96701.00;;;;8392014;28;20239;-72
2022/10/08 13:08:31;;;;;;;8.65;3.13;;;;;20.50;96703.00;;;;8398096;28;20224;-71
2022/10/08 13:12:34;;;;;;;7.90;3.35;;;;;20.70;96694.00;;;;8398795;28;20288;-71
2022/10/08 13:17:11;;;;;;;10.18;3.40;;;;;20.70;96707.00;;;;8398191;28;20220;-71
2022/10/08 13:21:35;;;;;;;4.30;3.10;;;;;20.90;96697.00;;;;8398359;28;20587;-72
2022/10/08 13:25:40;;;;;;;15.00;3.42;;;;;20.80;96705.00;;;;8397474;28;20286;-72
2022/10/08 13:29:44;;;;;;;12.00;4.10;;;;;20.50;96707.00;;;;8398763;28;20569;-71
2022/10/08 13:33:47;;;;;;;11.82;3.13;;;;;20.10;96705.00;;;;8398149;28;20637;-71
2022/10/08 13:37:53;;;;;;;6.18;3.20;;;;;20.00;96696.00;;;;8398011;28;20549;-71
2022/10/08 13:42:00;;;;;;;4.95;2.85;;;;;20.00;96698.00;;;;8397490;28;20623;-71
2022/10/08 13:46:03;;;;;;;11.07;3.72;;;;;20.20;96701.00;;;;8398033;28;20549;-71
2022/10/08 13:50:44;;;;;;;5.13;3.08;;;;;20.40;96697.00;;;;8397861;28;20224;-72
2022/10/08 13:54:48;;;;;;;6.28;3.17;;;;;20.60;96701.00;;;;8397230;28;20223;-72
2022/10/08 13:58:53;;;;;;;12.50;4.30;;;;;20.50;96702.00;;;;8397469;28;20224;-71
2022/10/08 14:02:56;;;;;;;16.83;3.45;;;;;20.20;96707.00;;;;8396447;28;20542;-71
2022/10/08 14:07:00;;;;;;;9.30;2.95;;;;;20.10;96711.00;;;;8397374;28;20269;-72
2022/10/08 14:11:36;;;;;;;5.20;2.50;;;;;20.00;96701.00;;;;8396080;28;20216;-72
2022/10/08 14:15:41;;;;;;;5.63;2.40;;;;;20.00;96709.00;;;;8396619;28;20222;-72
2022/10/08 14:19:44;;;;;;;5.03;2.92;;;;;20.10;96712.00;;;;8395501;28;20219;-72
2022/10/08 14:24:21;;;;;;;7.53;2.60;;;;;20.00;96719.00;;;;8397221;28;20220;-72
2022/10/08 14:28:25;;;;;;;24.80;4.68;;;;;20.00;96715.00;;;;8395459;28;20550;-72
2022/10/08 14:33:03;;;;;;;7.13;2.67;;;;;19.80;96717.00;;;;8396030;28;20258;-72
2022/10/08 14:37:13;;;;;;;8.55;2.78;;;;;19.50;96729.00;;;;8395790;28;20216;-72
2022/10/08 14:41:16;;;;;;;4.88;2.47;;;;;19.30;96727.00;;;;8396108;28;20553;-72
2022/10/08 14:45:20;;;;;;;6.30;2.55;;;;;19.30;96731.00;;;;8395635;28;20216;-71
2022/10/08 14:49:25;;;;;;;39.70;4.45;;;;;19.20;96730.00;;;;8395454;28;20228;-72
2022/10/08 14:53:28;;;;;;;7.70;2.50;;;;;19.20;96722.00;;;;8395512;28;20626;-72
2022/10/08 14:57:32;;;;;;;5.47;2.33;;;;;19.10;96733.00;;;;8394650;28;20227;-72
2022/10/08 15:02:06;;;;;;;10.27;2.25;;;;;18.90;96734.00;;;;8395363;28;20227;-72
2022/10/08 15:06:10;;;;;;;8.88;2.40;;;;;18.80;96751.00;;;;8394257;28;20224;-71
2022/10/08 15:10:48;;;;;;;4.07;2.13;;;;;18.60;96749.00;;;;8378747;28;20235;-72
2022/10/08 15:15:19;;;;;;;5.65;2.38;;;;;18.20;96751.00;;;;8390963;28;20250;-71
2022/10/08 15:19:22;;;;;;;7.55;2.70;;;;;17.90;96751.00;;;;8394826;28;20664;-71
2022/10/08 15:23:28;;;;;;;13.35;2.47;;;;;17.80;96755.00;;;;8394027;28;20226;-72
2022/10/08 15:28:02;;;;;;;6.03;2.60;;;;;17.70;96756.00;;;;8392430;28;20615;-71
2022/10/08 15:32:39;;;;;;;5.78;2.60;;;;;17.60;96763.00;;;;8385957;28;20680;-71
2022/10/08 15:37:16;;;;;;;8.55;2.30;;;;;17.50;96759.00;;;;8368500;28;20212;-72
2022/10/08 15:41:21;;;;;;;5.47;2.20;;;;;17.50;96767.00;;;;8393096;28;20220;-72
2022/10/08 15:45:24;;;;;;;11.43;2.40;;;;;17.40;96768.00;;;;8393881;28;20223;-72
2022/10/08 15:50:01;;;;;;;5.72;2.28;;;;;17.20;96779.00;;;;8391866;28;20223;-72
2022/10/08 15:54:38;;;;;;;6.97;2.60;;;;;17.10;96779.00;;;;8393297;28;20209;-71
2022/10/08 15:59:17;;;;;;;5.00;2.28;;;;;17.00;96788.00;;;;8392899;28;20223;-71
2022/10/08 16:03:50;;;;;;;5.05;2.10;;;;;16.90;96791.00;;;;8393588;28;20595;-72
2022/10/08 16:08:29;;;;;;;8.73;2.50;;;;;16.90;96797.00;;;;8392788;28;20227;-71
2022/10/08 16:13:03;;;;;;;16.42;2.45;;;;;16.80;96798.00;;;;8393464;28;20219;-71
2022/10/08 16:17:41;;;;;;;8.63;2.65;;;;;16.60;96791.00;;;;8392797;28;20261;-71
2022/10/08 16:22:15;;;;;;;17.35;2.22;;;;;16.50;96799.00;;;;8393137;28;20216;-71
2022/10/08 16:26:52;;;;;;;12.27;2.35;;;;;16.20;96793.00;;;;8392712;28;20212;-71
2022/10/08 16:31:30;;;;;;;40.03;5.47;;;;;15.90;96798.00;;;;8393621;28;20219;-71
2022/10/08 16:36:09;;;;;;;41.92;4.28;;;;;15.50;96807.00;;;;8391367;28;20216;-71
2022/10/08 16:40:43;;;;;;;26.83;4.15;;;;;15.20;96818.00;;;;8389117;28;20511;-73
2022/10/08 16:45:23;;;;;;;13.85;3.20;;;;;14.80;96818.00;;;;8389677;28;20279;-73
2022/10/08 16:50:00;;;;;;;14.32;3.25;;;;;14.40;96823.00;;;;8398334;28;20579;-73
2022/10/08 16:54:37;;;;;;;12.18;4.50;;;;;14.00;96839.00;;;;8397762;28;20220;-73
2022/10/08 16:59:16;;;;;;;12.82;5.93;;;;;13.60;96834.00;;;;8397552;28;20219;-74
2022/10/08 17:03:50;;;;;;;21.73;7.75;;;;;13.30;96844.00;;;;8398833;28;20230;-73
2022/10/08 17:08:27;;;;;;;15.80;6.57;;;;;13.00;96850.00;;;;8397525;28;20223;-75
2022/10/08 17:13:04;;;;;;;17.40;4.72;;;;;12.70;96848.00;;;;8398002;28;20270;-74
2022/10/08 17:17:42;;;;;;;6.88;3.60;;;;;12.40;96859.00;;;;8397403;28;20218;-74
2022/10/08 17:22:16;;;;;;;6.57;3.35;;;;;12.20;96863.00;;;;8393405;28;20223;-74
2022/10/08 17:26:53;;;;;;;9.65;3.17;;;;;12.00;96873.00;;;;8398364;28;20781;-77
2022/10/08 17:31:30;;;;;;;10.15;3.50;;;;;11.80;96871.00;;;;8380405;28;20558;-76
2022/10/08 17:36:13;;;;;;;7.68;3.83;;;;;11.60;96878.00;;;;8397079;28;20218;-75
2022/10/08 17:40:43;;;;;;;17.15;5.38;;;;;11.40;96889.00;;;;8397660;28;20224;-73
2022/10/08 17:44:46;;;;;;;10.77;4.05;;;;;11.20;96883.00;;;;8396700;28;20216;-75
2022/10/08 17:49:23;;;;;;;7.68;3.47;;;;;11.10;96891.00;;;;8397251;28;20234;-75
2022/10/08 17:54:00;;;;;;;9.80;3.90;;;;;11.00;96898.00;;;;8397208;28;20297;-75
2022/10/08 17:58:39;;;;;;;9.43;4.43;;;;;10.80;96902.00;;;;8396308;28;20295;-75
2022/10/08 18:03:13;;;;;;;13.55;6.40;;;;;10.80;96913.00;;;;8396283;28;20221;-74
2022/10/08 18:07:51;;;;;;;12.43;3.70;;;;;10.80;96916.00;;;;8396065;28;20231;-74
2022/10/08 18:12:27;;;;;;;7.38;2.80;;;;;10.90;96929.00;;;;8396216;28;20278;-75
2022/10/08 18:17:05;;;;;;;10.70;4.13;;;;;11.10;96930.00;;;;8395829;28;20250;-75
2022/10/08 18:21:39;;;;;;;10.57;3.30;;;;;11.20;96938.00;;;;8396323;28;20243;-75
2022/10/08 18:26:16;;;;;;;9.63;2.88;;;;;11.30;96942.00;;;;8396092;28;20595;-72
2022/10/08 18:30:53;;;;;;;2.63;2.00;;;;;11.40;96954.00;;;;8395168;28;20711;-70
2022/10/08 18:35:31;;;;;;;6.30;2.17;;;;;11.40;96960.00;;;;8395612;28;20560;-70
2022/10/08 18:40:06;;;;;;;6.22;2.53;;;;;11.40;96969.00;;;;8395502;28;20225;-70
2022/10/08 18:49:29;;;;;;;6.25;2.53;;;;;11.40;96970.00;;;;8394172;28;20665;-71
2022/10/08 18:53:42;;;;;;;4.60;2.80;;;;;11.50;96984.00;;;;8396023;28;20220;-71
2022/10/08 18:58:15;;;;;;;7.25;2.90;;;;;11.30;96986.00;;;;8395455;28;20550;-71
2022/10/08 19:02:53;;;;;;;5.45;3.25;;;;;11.00;96992.00;;;;8394774;28;20550;-70
2022/10/08 19:07:27;;;;;;;8.15;3.45;;;;;10.70;96987.00;;;;8393519;28;20294;-71
2022/10/08 19:12:06;;;;;;;8.13;3.78;;;;;10.50;96992.00;;;;8395531;28;20224;-70
2022/10/08 19:16:41;;;;;;;15.20;6.50;;;;;10.30;96999.00;;;;8393490;28;20235;-70
2022/10/08 19:21:18;;;;;;;18.67;7.55;;;;;10.10;97000.00;;;;8362910;28;20217;-70
2022/10/08 19:25:54;;;;;;;17.42;6.40;;;;;9.90;97011.00;;;;8361246;28;20221;-70
2022/10/08 19:30:34;;;;;;;20.80;6.50;;;;;9.80;97010.00;;;;8362368;28;20232;-70
2022/10/08 19:35:08;;;;;;;14.83;6.73;;;;;9.60;97017.00;;;;8360915;28;20213;-71
2022/10/08 19:39:42;;;;;;;11.90;6.90;;;;;9.50;97030.00;;;;8360574;28;20258;-70
2022/10/08 19:44:20;;;;;;;12.77;5.60;;;;;9.40;97032.00;;;;8359666;28;20312;-71
2022/10/08 19:48:58;;;;;;;16.47;6.23;;;;;9.30;97036.00;;;;8380284;28;20223;-70
2022/10/08 19:58:34;;;;;;;10.27;4.40;;;;;9.30;97061.00;;;;8382109;28;20232;-71
2022/10/08 20:03:11;;;;;;;7.63;3.40;;;;;9.50;97060.00;;;;8393757;28;20211;-70
2022/10/08 20:07:49;;;;;;;7.07;3.83;;;;;9.70;97079.00;;;;8392575;28;20227;-72
2022/10/08 20:12:23;;;;;;;7.10;3.75;;;;;9.80;97079.00;;;;8393149;28;20650;-70
2022/10/08 20:16:59;;;;;;;7.67;3.60;;;;;9.80;97086.00;;;;8397981;28;20603;-71
2022/10/08 20:21:37;;;;;;;9.63;3.08;;;;;9.80;97088.00;;;;8400942;28;20549;-71
2022/10/08 20:26:15;;;;;;;8.97;4.07;;;;;9.70;97096.00;;;;8399436;28;20220;-70
2022/10/08 20:30:49;;;;;;;15.00;4.00;;;;;9.80;97098.00;;;;8400199;28;20223;-71
2022/10/08 20:34:52;;;;;;;7.33;3.83;;;;;9.80;97106.00;;;;8399808;28;20276;-71
2022/10/08 20:38:56;;;;;;;14.63;4.28;;;;;9.70;97102.00;;;;8400022;28;20231;-71
2022/10/08 20:43:30;;;;;;;8.00;4.03;;;;;9.50;97111.00;;;;8399129;28;20223;-71
2022/10/08 20:48:08;;;;;;;15.17;5.43;;;;;9.20;97113.00;;;;8399746;28;20323;-71
2022/10/08 20:52:42;;;;;;;13.87;6.43;;;;;9.00;97120.00;;;;8398694;28;20227;-70
2022/10/08 20:57:18;;;;;;;9.48;5.53;;;;;8.80;97116.00;;;;8398442;28;20215;-71
2022/10/08 21:01:55;;;;;;;17.40;7.67;;;;;8.70;97117.00;;;;8398952;28;20219;-71
2022/10/08 21:06:00;;;;;;;21.83;8.30;;;;;8.60;97126.00;;;;8397526;28;20714;-71
2022/10/08 21:10:04;;;;;;;15.73;7.50;;;;;8.50;97123.00;;;;8398777;28;20224;-71
2022/10/08 21:14:43;;;;;;;14.40;5.80;;;;;8.30;97127.00;;;;8399065;28;20227;-71
2022/10/08 21:18:49;;;;;;;19.07;7.93;;;;;8.30;97127.00;;;;8397736;28;20577;-71
2022/10/08 21:23:28;;;;;;;15.37;7.40;;;;;8.10;97130.00;;;;8398552;28;20231;-72
2022/10/08 21:28:05;;;;;;;12.93;7.63;;;;;8.00;97136.00;;;;8397402;28;20216;-71
2022/10/08 21:32:08;;;;;;;17.77;7.77;;;;;7.90;97137.00;;;;8397996;28;20538;-71
2022/10/08 21:36:13;;;;;;;19.60;7.43;;;;;7.90;97140.00;;;;8397878;28;20236;-71
2022/10/08 21:40:46;;;;;;;31.47;13.33;;;;;7.80;97140.00;;;;8397346;28;20224;-71
2022/10/08 21:44:51;;;;;;;20.07;8.00;;;;;7.70;97142.00;;;;8397842;28;20216;-72
2022/10/08 21:49:25;;;;;;;17.27;7.47;;;;;7.50;97139.00;;;;8396841;28;20557;-72
2022/10/08 21:53:31;;;;;;;15.40;7.17;;;;;7.40;97145.00;;;;8397260;28;20228;-71
2022/10/08 21:57:43;;;;;;;11.40;7.10;;;;;7.40;97158.00;;;;8397261;28;20223;-71
2022/10/08 22:01:49;;;;;;;19.90;7.40;;;;;7.30;97154.00;;;;8367945;28;20228;-71